GABS Airport Information

Runway Information
Runway 06 Length 10498 ft width 148 ft
Elevation 1187 ft Threshold ft Heading 57
Runway 24 Length 10498 ft Width 148 ft
Elevation 1244 ft Threshold ft Heading 237
Airport Frequencies
Type A/G Name A/G Frequency 667.3 MHZ
Type ACC Name ACC Frequency 119.1 MHZ
Type TWR Name TWR Frequency 118.3 MHZ
Airport Navaids
Type VOR-DME Name Bamako/Senou Frequency 113700 KHZ
Type NDB Name Bamako/Senou Frequency 301 KHZ
Airport Weather Information & NOTAM
ADDS - METARS form results

(0919 UTC 27 June 2022)
Data provider http://aviationweather.gov/metar/data/
 
METAR text: GABS 270900Z 24005KT 200V260 CAVOK 29/23 Q1015 NOSIG
Conditions at: GABS (BAMAKO/SENOU (MI, ML) observed 0900 UTC 27 June 2022
Temperature: 29.0°C (84°F)
Dewpoint: 23.0°C (73°F) [RH = 70%]
Pressure (altimeter): 29.97 inches Hg (1015.0 mb)
Winds: from the WSW (240 degrees) at 6 MPH (5 knots; 2.6 m/s)
Visibility: 6 or more miles (10+ km)
Ceiling: ceiling and visibility are OK
Clouds: unknown
Weather: no significant weather observed at this time

METAR text: GABS 270830Z 22004KT CAVOK 28/23 Q1015 NOSIG
Conditions at: GABS (BAMAKO/SENOU (MI, ML) observed 0830 UTC 27 June 2022
Temperature: 28.0°C (82°F)
Dewpoint: 23.0°C (73°F) [RH = 74%]
Pressure (altimeter): 29.97 inches Hg (1015.0 mb)
Winds: from the SW (220 degrees) at 5 MPH (4 knots; 2.1 m/s)
Visibility: 6 or more miles (10+ km)
Ceiling: ceiling and visibility are OK
Clouds: unknown
Weather: no significant weather observed at this time

Forecast for: GABS (BAMAKO/SENOU (MI, ML)
Text: TAF GABS 270500Z 2706/2812 22008KT 9999 FEW025
Forecast period: 0600 UTC 27 June 2022 to 1200 UTC 28 June 2022
Forecast type: FROM: standard forecast or significant change
Winds: from the SW (220 degrees) at 9 MPH (8 knots; 4.1 m/s)
Visibility: 6 or more miles (10+ km)
Ceiling: at least 12,000 feet AGL
Clouds: few clouds at 2500 feet AGL
Weather: no significant weather forecast for this period
Text: PROB40
Forecast period: 0900 to 1300 UTC 27 June 2022
Forecast type: TEMPORARY: The following changes expected for less than half the time period
Winds: from the E (100 degrees) at 23 MPH (20 knots; 10.3 m/s)
gusting to 46 MPH (40 knots; 20.6 m/s)
Visibility: 1.86 miles (2.99 km)
Ceiling: 2500 feet AGL
Clouds: broken clouds at 2500 feet AGL
few clouds at 3300 feet AGL
Weather: TSRA BLDU SQ  (rain associated with thunderstorm(s), blowing dust, squal)
Text: TEMPO 2709/2713 10020G40KT 3000 TSRA BLDU SQ BKN025 FEW033CB
Forecast period: 2100 UTC 27 June 2022 to 0300 UTC 28 June 2022
Forecast type: TEMPORARY: The following changes expected for less than half the time period
Winds: from the E (80 degrees) at 21 MPH (18 knots; 9.3 m/s)
gusting to 40 MPH (35 knots; 18.0 m/s)
Visibility: 1.24 miles (2.00 km)
Ceiling: 2500 feet AGL
Clouds: broken clouds at 2500 feet AGL
scattered clouds at 3000 feet AGL
Weather: +TSRA  (heavy rain associated with thunderstorm(s))